Time;durP1;ratioP1;P1;durP2;ratioP2;P2;SDS_P1;SDS_P2;PMS_P1;PMS_P2;Temp;Humidity;BMP_temperature;BMP_pressure;BME280_temperature;BME280_humidity;BME280_pressure;Samples;Min_cycle;Max_cycle;Signal;HPM_P1;HPM_P2
2021/08/30 00:01:55;;;;;;;13.27;7.50;;;;;;;;;;5092927;28;20024;-74
2021/08/30 00:04:21;;;;;;;13.77;7.30;;;;;;;;;;5109093;28;20080;-73
2021/08/30 00:06:48;;;;;;;13.65;6.97;;;;;;;;;;5111640;28;20023;-72
2021/08/30 00:09:15;;;;;;;17.17;7.40;;;;;;;;;;5110461;28;20031;-72
2021/08/30 00:11:41;;;;;;;17.40;8.30;;;;;;;;;;5092858;28;20020;-73
2021/08/30 00:14:07;;;;;;;22.98;8.98;;;;;;;;;;5108442;28;20123;-73
2021/08/30 00:16:33;;;;;;;12.75;8.13;;;;;;;;;;5110940;28;20019;-72
2021/08/30 00:18:59;;;;;;;21.10;7.43;;;;;;;;;;5111592;28;20020;-73
2021/08/30 00:21:26;;;;;;;12.95;8.55;;;;;;;;;;5111470;28;20538;-72
2021/08/30 00:23:52;;;;;;;16.48;7.40;;;;;;;;;;5108648;28;20034;-73
2021/08/30 00:26:18;;;;;;;16.25;7.85;;;;;;;;;;5108663;28;20064;-73
2021/08/30 00:28:44;;;;;;;13.88;8.02;;;;;;;;;;5111354;28;20031;-72
2021/08/30 00:31:10;;;;;;;14.25;8.27;;;;;;;;;;5091415;28;20057;-72
2021/08/30 00:33:36;;;;;;;16.77;9.38;;;;;;;;;;5108965;28;20110;-72
2021/08/30 00:36:02;;;;;;;18.45;9.35;;;;;;;;;;5111501;28;20711;-72
2021/08/30 00:38:28;;;;;;;15.70;7.93;;;;;;;;;;5092333;28;20110;-73
2021/08/30 00:40:54;;;;;;;13.48;7.32;;;;;;;;;;5111367;28;20108;-71
2021/08/30 00:43:20;;;;;;;18.13;7.85;;;;;;;;;;5107445;28;20024;-71
2021/08/30 00:45:46;;;;;;;17.05;8.27;;;;;;;;;;5092410;28;20035;-70
2021/08/30 00:48:12;;;;;;;14.18;8.20;;;;;;;;;;5110554;28;20097;-70
2021/08/30 00:50:38;;;;;;;17.63;7.97;;;;;;;;;;5111271;28;20040;-72
2021/08/30 00:53:05;;;;;;;15.85;8.55;;;;;;;;;;5107979;28;20028;-72
2021/08/30 00:55:33;;;;;;;12.27;7.95;;;;;;;;;;5110951;28;20020;-73
2021/08/30 00:57:59;;;;;;;15.70;8.45;;;;;;;;;;5091893;28;20022;-71
2021/08/30 01:00:25;;;;;;;13.80;7.35;;;;;;;;;;5110686;28;20034;-71
2021/08/30 01:02:51;;;;;;;15.98;7.50;;;;;;;;;;5108293;28;20023;-70
2021/08/30 01:05:18;;;;;;;12.88;6.50;;;;;;;;;;5109779;28;20493;-71
2021/08/30 01:08:05;;;;;;;12.73;7.13;;;;;;;;;;5091004;28;20043;-72
2021/08/30 01:11:04;;;;;;;13.60;6.43;;;;;;;;;;5110167;28;20062;-72
2021/08/30 01:13:33;;;;;;;13.88;6.80;;;;;;;;;;5080820;28;20040;-73
2021/08/30 01:16:00;;;;;;;16.40;6.38;;;;;;;;;;5109960;28;20069;-73
2021/08/30 01:18:28;;;;;;;19.83;6.93;;;;;;;;;;5109940;28;20063;-73
2021/08/30 01:20:54;;;;;;;15.20;7.22;;;;;;;;;;5091202;28;20028;-73
2021/08/30 01:23:23;;;;;;;17.35;9.23;;;;;;;;;;5107413;28;20499;-73
2021/08/30 01:25:51;;;;;;;15.38;8.02;;;;;;;;;;5091813;28;20028;-73
2021/08/30 01:28:17;;;;;;;16.55;7.53;;;;;;;;;;5108870;28;20102;-75
2021/08/30 01:30:45;;;;;;;18.60;8.63;;;;;;;;;;5109565;28;20042;-74
2021/08/30 01:33:11;;;;;;;11.68;6.95;;;;;;;;;;5106456;28;20024;-73
2021/08/30 01:35:37;;;;;;;12.98;8.35;;;;;;;;;;5091068;28;20046;-74
2021/08/30 01:38:06;;;;;;;13.95;7.45;;;;;;;;;;5088916;28;20031;-73
2021/08/30 01:40:33;;;;;;;15.07;8.70;;;;;;;;;;5091361;28;20045;-72
2021/08/30 01:43:00;;;;;;;15.32;8.07;;;;;;;;;;5106952;28;20080;-73
2021/08/30 01:45:28;;;;;;;12.98;7.90;;;;;;;;;;5109323;28;20024;-72
2021/08/30 01:47:55;;;;;;;14.75;7.43;;;;;;;;;;5090895;28;20032;-73
2021/08/30 01:50:22;;;;;;;16.50;8.43;;;;;;;;;;5109340;28;20101;-72
2021/08/30 01:52:50;;;;;;;11.82;7.53;;;;;;;;;;5107295;28;20074;-73
2021/08/30 02:03:21;;;;;;;15.95;8.07;;;;;;;;;;5105983;28;20042;-73
2021/08/30 02:05:51;;;;;;;15.98;8.90;;;;;;;;;;5088992;28;20020;-72
2021/08/30 02:08:19;;;;;;;15.10;8.75;;;;;;;;;;5108959;28;20545;-73
2021/08/30 02:10:46;;;;;;;19.13;9.40;;;;;;;;;;5108526;28;20031;-72
2021/08/30 02:13:12;;;;;;;15.10;9.18;;;;;;;;;;5104405;28;20307;-73
2021/08/30 02:15:39;;;;;;;16.45;9.20;;;;;;;;;;5109359;28;20042;-73
2021/08/30 02:18:19;;;;;;;17.75;9.50;;;;;;;;;;5107857;28;20102;-71
2021/08/30 02:20:53;;;;;;;15.88;10.75;;;;;;;;;;5108204;28;20296;-72
2021/08/30 02:23:21;;;;;;;14.13;9.48;;;;;;;;;;5106793;28;20020;-71
2021/08/30 02:25:50;;;;;;;16.70;10.10;;;;;;;;;;5108636;28;20028;-71
2021/08/30 02:28:17;;;;;;;20.40;9.20;;;;;;;;;;5108843;28;20032;-71
2021/08/30 02:30:43;;;;;;;17.75;9.35;;;;;;;;;;5108601;28;20031;-72
2021/08/30 02:33:10;;;;;;;13.82;8.23;;;;;;;;;;5106248;28;20024;-71
2021/08/30 02:35:37;;;;;;;16.38;8.05;;;;;;;;;;5108168;28;20092;-71
2021/08/30 02:38:04;;;;;;;18.50;9.52;;;;;;;;;;5108474;28;20024;-71
2021/08/30 02:40:30;;;;;;;18.95;9.32;;;;;;;;;;5108476;28;20410;-71
2021/08/30 02:42:58;;;;;;;16.33;9.68;;;;;;;;;;5105644;28;20101;-73
2021/08/30 02:45:24;;;;;;;22.60;11.20;;;;;;;;;;5109077;28;20028;-72
2021/08/30 02:47:51;;;;;;;21.00;11.55;;;;;;;;;;5113049;28;20051;-74
2021/08/30 02:50:17;;;;;;;19.05;10.27;;;;;;;;;;5111966;28;20062;-73
2021/08/30 02:52:44;;;;;;;21.40;10.80;;;;;;;;;;5110229;28;20015;-72
2021/08/30 02:55:11;;;;;;;19.33;10.93;;;;;;;;;;5113222;28;20030;-73
2021/08/30 02:57:37;;;;;;;20.65;11.23;;;;;;;;;;5111702;28;20020;-73
2021/08/30 03:00:04;;;;;;;17.65;11.07;;;;;;;;;;5094141;28;20523;-73
2021/08/30 03:02:31;;;;;;;18.83;11.60;;;;;;;;;;5091161;28;20035;-72
2021/08/30 03:04:58;;;;;;;18.85;11.82;;;;;;;;;;5113317;28;20023;-73
2021/08/30 03:07:27;;;;;;;23.58;10.55;;;;;;;;;;5112653;28;20092;-73
2021/08/30 03:09:53;;;;;;;27.00;11.18;;;;;;;;;;5093195;28;20461;-73
2021/08/30 03:12:20;;;;;;;18.98;12.02;;;;;;;;;;5090679;28;20023;-73
2021/08/30 03:14:48;;;;;;;18.25;11.65;;;;;;;;;;5112498;28;20038;-72
2021/08/30 03:17:15;;;;;;;24.38;13.82;;;;;;;;;;5112642;28;20024;-73
2021/08/30 03:19:42;;;;;;;25.17;12.43;;;;;;;;;;5110737;28;20107;-73
2021/08/30 03:22:10;;;;;;;25.45;12.35;;;;;;;;;;5111062;28;20406;-75
2021/08/30 03:24:39;;;;;;;22.13;11.07;;;;;;;;;;5111063;28;20036;-73
2021/08/30 03:27:06;;;;;;;20.50;11.80;;;;;;;;;;5112453;28;20019;-73
2021/08/30 03:29:32;;;;;;;24.23;11.35;;;;;;;;;;5093272;28;20032;-73
2021/08/30 03:31:59;;;;;;;25.95;13.05;;;;;;;;;;5111654;28;20019;-72
2021/08/30 03:34:25;;;;;;;23.38;12.45;;;;;;;;;;5109235;28;20389;-73
2021/08/30 03:36:52;;;;;;;30.10;11.95;;;;;;;;;;5093258;28;20028;-74
2021/08/30 03:39:18;;;;;;;21.98;12.13;;;;;;;;;;5093579;28;20100;-73
2021/08/30 03:41:46;;;;;;;23.38;13.32;;;;;;;;;;5111900;28;20019;-74
2021/08/30 03:44:12;;;;;;;23.90;13.38;;;;;;;;;;5109464;28;20036;-73
2021/08/30 03:46:39;;;;;;;25.42;13.65;;;;;;;;;;5112487;28;20012;-72
2021/08/30 03:49:05;;;;;;;28.33;13.20;;;;;;;;;;5092363;28;20035;-74
2021/08/30 03:51:31;;;;;;;24.60;12.77;;;;;;;;;;5108684;28;20131;-76
2021/08/30 03:53:57;;;;;;;27.90;13.90;;;;;;;;;;5109319;28;20027;-73
2021/08/30 03:56:26;;;;;;;20.60;12.00;;;;;;;;;;5109485;28;20027;-73
2021/08/30 03:58:53;;;;;;;22.95;12.35;;;;;;;;;;5111340;28;20016;-72
2021/08/30 04:01:24;;;;;;;24.30;13.25;;;;;;;;;;5111096;28;20019;-73
2021/08/30 04:03:50;;;;;;;24.43;12.77;;;;;;;;;;5109566;28;20499;-72
2021/08/30 04:06:16;;;;;;;21.90;11.45;;;;;;;;;;5111712;28;20019;-73
2021/08/30 04:08:43;;;;;;;22.13;11.73;;;;;;;;;;5091252;28;20030;-73
2021/08/30 04:11:10;;;;;;;22.35;12.30;;;;;;;;;;5111496;28;20016;-73
2021/08/30 04:13:36;;;;;;;27.70;13.40;;;;;;;;;;5108848;28;20039;-72
2021/08/30 04:16:02;;;;;;;24.70;12.50;;;;;;;;;;5092456;28;20047;-72
2021/08/30 04:18:28;;;;;;;22.52;11.70;;;;;;;;;;5111855;28;20034;-72
2021/08/30 04:20:54;;;;;;;18.45;11.63;;;;;;;;;;5110850;28;20080;-71
2021/08/30 04:23:20;;;;;;;21.67;11.70;;;;;;;;;;5108854;28;20038;-72
2021/08/30 04:25:46;;;;;;;17.42;10.73;;;;;;;;;;5111554;28;20036;-73
2021/08/30 04:28:12;;;;;;;16.60;10.52;;;;;;;;;;5110766;28;20485;-72
2021/08/30 04:30:39;;;;;;;18.45;10.75;;;;;;;;;;5110463;28;20034;-71
2021/08/30 04:33:10;;;;;;;19.70;11.35;;;;;;;;;;5107988;28;20022;-73
2021/08/30 04:35:36;;;;;;;20.57;10.90;;;;;;;;;;5111371;28;20569;-72
2021/08/30 04:38:03;;;;;;;18.55;10.98;;;;;;;;;;5109393;28;20276;-72
2021/08/30 04:40:29;;;;;;;18.90;11.88;;;;;;;;;;5110868;28;20043;-72
2021/08/30 04:42:55;;;;;;;18.50;12.00;;;;;;;;;;5108350;28;20035;-72
2021/08/30 04:45:21;;;;;;;22.75;12.48;;;;;;;;;;5110267;28;20031;-72
2021/08/30 04:47:47;;;;;;;28.45;12.43;;;;;;;;;;5110700;28;20095;-72
2021/08/30 04:50:13;;;;;;;20.17;12.45;;;;;;;;;;5108736;28;20044;-73
2021/08/30 04:52:39;;;;;;;26.38;13.02;;;;;;;;;;5108572;28;20207;-73
2021/08/30 04:55:06;;;;;;;18.52;13.30;;;;;;;;;;5091681;28;20054;-72
2021/08/30 04:57:32;;;;;;;29.00;14.25;;;;;;;;;;5111309;28;20020;-73
2021/08/30 04:59:58;;;;;;;22.33;14.52;;;;;;;;;;5092992;28;20393;-72
2021/08/30 05:02:24;;;;;;;19.67;12.57;;;;;;;;;;5109383;28;20020;-72
2021/08/30 05:04:50;;;;;;;31.10;13.73;;;;;;;;;;5093316;28;20028;-71
2021/08/30 05:07:16;;;;;;;22.42;13.05;;;;;;;;;;5109821;28;20030;-72
2021/08/30 05:09:42;;;;;;;23.00;13.48;;;;;;;;;;5111234;28;20039;-72
2021/08/30 05:12:08;;;;;;;23.20;13.32;;;;;;;;;;5109300;28;20277;-71
2021/08/30 05:14:34;;;;;;;18.98;12.25;;;;;;;;;;5091979;28;20027;-71
2021/08/30 05:17:00;;;;;;;21.65;12.90;;;;;;;;;;5110747;28;20059;-73
2021/08/30 05:19:26;;;;;;;26.48;12.85;;;;;;;;;;5110227;28;20073;-71
2021/08/30 05:21:53;;;;;;;19.52;12.93;;;;;;;;;;5108350;28;20020;-70
2021/08/30 05:24:19;;;;;;;28.63;13.73;;;;;;;;;;5077865;28;20036;-74
2021/08/30 05:26:45;;;;;;;23.27;13.68;;;;;;;;;;5109553;28;20023;-72
2021/08/30 05:29:11;;;;;;;23.80;14.10;;;;;;;;;;5111867;28;20038;-72
2021/08/30 05:31:37;;;;;;;27.20;13.95;;;;;;;;;;5090359;28;20042;-74
2021/08/30 05:34:03;;;;;;;24.60;12.57;;;;;;;;;;5088616;28;20032;-71
2021/08/30 05:36:30;;;;;;;30.30;12.93;;;;;;;;;;5111862;28;20057;-71
2021/08/30 05:38:56;;;;;;;29.40;13.40;;;;;;;;;;5085930;28;20405;-72
2021/08/30 05:41:22;;;;;;;31.08;13.38;;;;;;;;;;5110123;28;20034;-72
2021/08/30 05:43:49;;;;;;;23.88;12.98;;;;;;;;;;5104194;28;20008;-71
2021/08/30 05:46:18;;;;;;;20.58;12.82;;;;;;;;;;5106920;28;20031;-73
2021/08/30 05:48:48;;;;;;;21.15;12.13;;;;;;;;;;5106372;28;20020;-71
2021/08/30 05:51:14;;;;;;;26.73;13.73;;;;;;;;;;5108868;28;20056;-71
2021/08/30 05:53:41;;;;;;;24.10;12.75;;;;;;;;;;5108662;28;20016;-71
2021/08/30 05:56:08;;;;;;;24.85;12.43;;;;;;;;;;5107105;28;20085;-70
2021/08/30 05:58:34;;;;;;;22.35;13.07;;;;;;;;;;5111531;28;20012;-70
2021/08/30 06:01:01;;;;;;;23.80;13.77;;;;;;;;;;5106328;28;20513;-70
2021/08/30 06:03:27;;;;;;;45.03;15.07;;;;;;;;;;5104676;28;20028;-70
2021/08/30 06:05:53;;;;;;;25.80;13.40;;;;;;;;;;5107520;28;20119;-70
2021/08/30 06:08:19;;;;;;;29.70;14.57;;;;;;;;;;5091148;28;20028;-70
2021/08/30 06:10:45;;;;;;;28.83;14.52;;;;;;;;;;5090776;28;20039;-70
2021/08/30 06:13:11;;;;;;;23.05;14.98;;;;;;;;;;5105528;28;20069;-70
2021/08/30 06:15:37;;;;;;;24.55;13.55;;;;;;;;;;5109807;28;20085;-71
2021/08/30 06:18:03;;;;;;;29.15;14.73;;;;;;;;;;5091657;28;20043;-70
2021/08/30 06:20:29;;;;;;;24.90;14.75;;;;;;;;;;5110065;28;20038;-74
2021/08/30 06:22:55;;;;;;;25.23;13.35;;;;;;;;;;5106962;28;20027;-72
2021/08/30 06:25:22;;;;;;;33.42;14.77;;;;;;;;;;5110375;28;20039;-71
2021/08/30 06:27:48;;;;;;;25.65;13.80;;;;;;;;;;5089922;28;20127;-72
2021/08/30 06:30:14;;;;;;;21.33;13.45;;;;;;;;;;5091050;28;20066;-71
2021/08/30 06:32:40;;;;;;;26.83;14.52;;;;;;;;;;5101213;28;20051;-71
2021/08/30 06:35:07;;;;;;;30.67;14.82;;;;;;;;;;5090583;28;20020;-70
2021/08/30 06:37:33;;;;;;;26.58;15.00;;;;;;;;;;5108921;28;20478;-71
2021/08/30 06:39:59;;;;;;;29.88;15.15;;;;;;;;;;5109632;28;20031;-71
2021/08/30 06:42:25;;;;;;;26.70;15.40;;;;;;;;;;5106815;28;20028;-71
2021/08/30 06:44:51;;;;;;;24.83;14.40;;;;;;;;;;5103428;28;20028;-71
2021/08/30 06:47:17;;;;;;;30.23;14.40;;;;;;;;;;5072803;28;20486;-71
2021/08/30 06:49:43;;;;;;;26.13;14.07;;;;;;;;;;5091907;28;20067;-72
2021/08/30 06:52:09;;;;;;;21.55;14.82;;;;;;;;;;5082343;28;20045;-72
2021/08/30 06:54:35;;;;;;;23.38;15.25;;;;;;;;;;5108943;28;20520;-72
2021/08/30 06:57:02;;;;;;;24.73;13.93;;;;;;;;;;5108844;28;20030;-69
2021/08/30 06:59:28;;;;;;;24.48;15.65;;;;;;;;;;5091952;28;20066;-69
2021/08/30 07:01:54;;;;;;;26.13;14.38;;;;;;;;;;5109151;28;20024;-70
2021/08/30 07:04:20;;;;;;;26.58;15.43;;;;;;;;;;5104864;28;20084;-70
2021/08/30 07:06:46;;;;;;;24.00;15.13;;;;;;;;;;5095180;28;20027;-70
2021/08/30 07:09:12;;;;;;;27.58;15.93;;;;;;;;;;5107985;28;20176;-70
2021/08/30 07:11:38;;;;;;;23.65;15.13;;;;;;;;;;5086696;28;20336;-71
2021/08/30 07:14:04;;;;;;;25.40;16.23;;;;;;;;;;5103212;28;20024;-72
2021/08/30 07:16:30;;;;;;;23.50;14.65;;;;;;;;;;5110168;28;20022;-77
2021/08/30 07:18:57;;;;;;;26.33;15.25;;;;;;;;;;5110536;28;20031;-71
2021/08/30 07:21:28;;;;;;;27.00;15.38;;;;;;;;;;5090758;28;20447;-70
2021/08/30 07:23:54;;;;;;;22.45;14.40;;;;;;;;;;5087730;28;20164;-73
2021/08/30 07:26:20;;;;;;;21.95;14.43;;;;;;;;;;5104975;28;20505;-72
2021/08/30 07:28:46;;;;;;;23.05;15.70;;;;;;;;;;5102476;28;20031;-72
2021/08/30 07:31:12;;;;;;;26.25;14.02;;;;;;;;;;5107676;28;20023;-72
2021/08/30 07:33:38;;;;;;;22.38;14.93;;;;;;;;;;5102121;28;20102;-72
2021/08/30 07:36:05;;;;;;;28.77;16.35;;;;;;;;;;5113606;28;20512;-72
2021/08/30 07:38:31;;;;;;;34.42;16.52;;;;;;;;;;5112439;28;20031;-72
2021/08/30 07:40:57;;;;;;;22.35;13.98;;;;;;;;;;5113912;28;20024;-76
2021/08/30 07:43:23;;;;;;;24.20;14.57;;;;;;;;;;5108549;28;20028;-72
2021/08/30 07:45:49;;;;;;;22.67;12.82;;;;;;;;;;5111926;28;20074;-72
2021/08/30 07:48:15;;;;;;;23.70;13.63;;;;;;;;;;5113475;28;20038;-72
2021/08/30 07:50:42;;;;;;;19.95;13.60;;;;;;;;;;5113165;28;20044;-75
2021/08/30 07:53:08;;;;;;;26.92;13.52;;;;;;;;;;5110406;28;20104;-70
2021/08/30 07:55:35;;;;;;;23.08;13.50;;;;;;;;;;5113911;28;20370;-72
2021/08/30 07:58:02;;;;;;;27.02;13.45;;;;;;;;;;5111165;28;20120;-70
2021/08/30 08:00:28;;;;;;;18.85;12.80;;;;;;;;;;5111467;28;20023;-70
2021/08/30 08:02:54;;;;;;;18.33;11.57;;;;;;;;;;5091427;28;20023;-75
2021/08/30 08:05:20;;;;;;;23.92;13.20;;;;;;;;;;5112977;28;20057;-73
2021/08/30 08:07:46;;;;;;;22.25;12.60;;;;;;;;;;5112163;28;20016;-70
2021/08/30 08:10:12;;;;;;;21.95;12.20;;;;;;;;;;5108228;28;20135;-71
2021/08/30 08:12:38;;;;;;;26.48;13.00;;;;;;;;;;5085696;28;20548;-73
2021/08/30 08:15:05;;;;;;;21.63;12.63;;;;;;;;;;5112634;28;20024;-74
2021/08/30 08:17:31;;;;;;;24.95;12.68;;;;;;;;;;5091944;28;20467;-76
2021/08/30 08:19:57;;;;;;;28.05;11.52;;;;;;;;;;5099954;28;20481;-73
2021/08/30 08:22:23;;;;;;;30.27;12.55;;;;;;;;;;5106390;28;20028;-73
2021/08/30 08:24:49;;;;;;;19.30;10.90;;;;;;;;;;5113369;28;20028;-73
2021/08/30 08:27:15;;;;;;;23.05;11.95;;;;;;;;;;5094617;28;20023;-73
2021/08/30 08:29:41;;;;;;;25.13;11.98;;;;;;;;;;5090917;28;20455;-73
2021/08/30 08:32:07;;;;;;;20.55;12.98;;;;;;;;;;5109190;28;20034;-74
2021/08/30 08:34:33;;;;;;;26.27;13.25;;;;;;;;;;5111128;28;20034;-70
2021/08/30 08:37:02;;;;;;;31.08;14.80;;;;;;;;;;5090075;28;20034;-71
2021/08/30 08:39:28;;;;;;;25.30;12.05;;;;;;;;;;5093186;28;20028;-71
2021/08/30 08:41:54;;;;;;;30.50;12.93;;;;;;;;;;5110551;28;20031;-74
2021/08/30 08:44:20;;;;;;;22.23;12.65;;;;;;;;;;5091225;28;20042;-73
2021/08/30 08:46:46;;;;;;;24.55;13.52;;;;;;;;;;5091458;28;20110;-73
2021/08/30 08:49:12;;;;;;;21.48;12.65;;;;;;;;;;5109172;28;20509;-73
2021/08/30 08:51:38;;;;;;;22.55;12.95;;;;;;;;;;5110399;28;20122;-74
2021/08/30 08:54:07;;;;;;;23.45;12.27;;;;;;;;;;5088273;28;20039;-74
2021/08/30 08:56:33;;;;;;;28.23;12.55;;;;;;;;;;5111500;28;20020;-77
2021/08/30 08:58:59;;;;;;;23.67;11.98;;;;;;;;;;5110933;28;20020;-74
2021/08/30 09:01:26;;;;;;;25.77;12.35;;;;;;;;;;5111569;28;20034;-74
2021/08/30 09:03:53;;;;;;;23.08;11.75;;;;;;;;;;5085164;28;20036;-72
2021/08/30 09:06:25;;;;;;;22.45;12.20;;;;;;;;;;5109881;28;20028;-72
2021/08/30 09:08:53;;;;;;;26.05;12.40;;;;;;;;;;5088329;28;20023;-72
2021/08/30 09:11:22;;;;;;;27.27;12.00;;;;;;;;;;5088484;28;20883;-75
2021/08/30 09:13:55;;;;;;;27.88;13.57;;;;;;;;;;5103258;28;20027;-73
2021/08/30 09:16:22;;;;;;;32.50;13.10;;;;;;;;;;5101811;28;20042;-77
2021/08/30 09:18:49;;;;;;;30.23;13.23;;;;;;;;;;5110599;28;20024;-73
2021/08/30 09:21:16;;;;;;;27.13;13.30;;;;;;;;;;5109671;28;20026;-73
2021/08/30 09:23:43;;;;;;;27.83;12.88;;;;;;;;;;5109886;28;20032;-72
2021/08/30 09:26:16;;;;;;;29.17;12.70;;;;;;;;;;5092133;28;20038;-74
2021/08/30 09:28:48;;;;;;;33.58;13.00;;;;;;;;;;5109407;28;20027;-80
2021/08/30 09:31:14;;;;;;;37.05;13.48;;;;;;;;;;5109250;28;20039;-76
2021/08/30 09:33:51;;;;;;;27.75;12.02;;;;;;;;;;5091201;28;20024;-75
2021/08/30 09:36:18;;;;;;;29.75;12.68;;;;;;;;;;5111031;28;20039;-76
2021/08/30 09:38:44;;;;;;;34.88;12.85;;;;;;;;;;5110859;28;20054;-76
2021/08/30 09:41:11;;;;;;;33.05;13.75;;;;;;;;;;5090382;28;20043;-74
2021/08/30 09:43:37;;;;;;;22.73;11.88;;;;;;;;;;5096518;28;20080;-74
2021/08/30 09:46:04;;;;;;;28.70;12.27;;;;;;;;;;5107046;28;20492;-74
2021/08/30 09:48:31;;;;;;;35.47;13.43;;;;;;;;;;5111517;28;20603;-75
2021/08/30 09:51:05;;;;;;;35.63;13.60;;;;;;;;;;5111577;28;20047;-73
2021/08/30 09:53:32;;;;;;;33.35;12.93;;;;;;;;;;5109682;28;20031;-73
2021/08/30 09:55:58;;;;;;;32.95;13.00;;;;;;;;;;5109875;28;20028;-73
2021/08/30 09:58:27;;;;;;;23.38;12.23;;;;;;;;;;5091440;28;20505;-73
2021/08/30 10:00:55;;;;;;;24.25;12.90;;;;;;;;;;5109264;28;20035;-72
2021/08/30 10:03:22;;;;;;;31.17;13.38;;;;;;;;;;5101977;28;20068;-76
2021/08/30 10:05:51;;;;;;;29.80;12.75;;;;;;;;;;5111824;28;20027;-73
2021/08/30 10:08:17;;;;;;;21.23;12.45;;;;;;;;;;5093279;28;20030;-73
2021/08/30 10:10:44;;;;;;;27.92;13.70;;;;;;;;;;5111945;28;20027;-73
2021/08/30 10:13:10;;;;;;;29.25;12.35;;;;;;;;;;5074946;28;20558;-73
2021/08/30 10:15:37;;;;;;;31.85;13.18;;;;;;;;;;5104207;28;20898;-73
2021/08/30 10:18:03;;;;;;;19.60;10.55;;;;;;;;;;5102996;28;20020;-72
2021/08/30 10:20:34;;;;;;;23.80;11.80;;;;;;;;;;5090628;28;20016;-74
2021/08/30 10:23:01;;;;;;;25.85;12.40;;;;;;;;;;5103092;28;20114;-72
2021/08/30 10:25:27;;;;;;;20.02;10.70;;;;;;;;;;5100712;28;20413;-73
2021/08/30 10:27:55;;;;;;;27.52;13.50;;;;;;;;;;5092396;28;20024;-73
2021/08/30 10:30:23;;;;;;;28.42;11.27;;;;;;;;;;5104819;28;20023;-73
2021/08/30 10:32:52;;;;;;;26.90;12.43;;;;;;;;;;5108202;28;20032;-72
2021/08/30 10:35:20;;;;;;;28.58;11.90;;;;;;;;;;5088191;28;20380;-72
2021/08/30 10:37:51;;;;;;;25.77;12.45;;;;;;;;;;5092684;28;20015;-72
2021/08/30 10:40:17;;;;;;;24.55;10.80;;;;;;;;;;5110891;28;20024;-73
2021/08/30 10:42:44;;;;;;;21.75;10.77;;;;;;;;;;5088162;28;20013;-71
2021/08/30 10:45:11;;;;;;;24.98;11.23;;;;;;;;;;5103850;28;20034;-72
2021/08/30 10:47:38;;;;;;;31.60;11.88;;;;;;;;;;5092074;28;20019;-71
2021/08/30 10:50:06;;;;;;;28.35;11.63;;;;;;;;;;5110467;28;20097;-73
2021/08/30 10:52:39;;;;;;;31.27;12.30;;;;;;;;;;5089651;28;20020;-72
2021/08/30 10:55:14;;;;;;;25.77;10.85;;;;;;;;;;5099871;28;20024;-73
2021/08/30 10:57:41;;;;;;;28.42;11.32;;;;;;;;;;5096753;28;20704;-72
2021/08/30 11:00:08;;;;;;;23.70;11.40;;;;;;;;;;5110679;28;20504;-72
2021/08/30 11:02:35;;;;;;;26.33;10.60;;;;;;;;;;5089729;28;20024;-72
2021/08/30 11:05:02;;;;;;;24.95;10.70;;;;;;;;;;5112955;28;20036;-72
2021/08/30 11:07:28;;;;;;;27.65;11.13;;;;;;;;;;5114698;28;20036;-73
2021/08/30 11:09:54;;;;;;;33.10;11.35;;;;;;;;;;5096503;28;20081;-72
2021/08/30 11:12:20;;;;;;;29.73;12.10;;;;;;;;;;5101082;28;20028;-72
2021/08/30 11:14:55;;;;;;;29.00;10.85;;;;;;;;;;5109963;28;20024;-72
2021/08/30 11:17:27;;;;;;;30.55;11.23;;;;;;;;;;5102837;28;20020;-72
2021/08/30 11:19:54;;;;;;;28.17;11.65;;;;;;;;;;5110107;28;20115;-72
2021/08/30 11:22:20;;;;;;;33.08;10.90;;;;;;;;;;5098278;28;20541;-74
2021/08/30 11:24:46;;;;;;;25.92;11.50;;;;;;;;;;5101614;28;20027;-73
2021/08/30 11:27:17;;;;;;;26.67;11.48;;;;;;;;;;5111261;28;20030;-73
2021/08/30 11:29:44;;;;;;;29.73;11.63;;;;;;;;;;5110509;28;20566;-72
2021/08/30 11:32:11;;;;;;;31.35;11.32;;;;;;;;;;5112862;28;20023;-73
2021/08/30 11:34:38;;;;;;;29.48;11.18;;;;;;;;;;5112021;28;20023;-73
2021/08/30 11:37:04;;;;;;;31.77;12.40;;;;;;;;;;5113794;28;20157;-73
2021/08/30 11:39:33;;;;;;;29.10;11.90;;;;;;;;;;5113273;28;20027;-73
2021/08/30 11:42:00;;;;;;;24.95;10.82;;;;;;;;;;5095271;28;20024;-74
2021/08/30 11:44:31;;;;;;;30.67;11.55;;;;;;;;;;5107214;28;20532;-75
2021/08/30 11:46:58;;;;;;;27.33;11.00;;;;;;;;;;5113815;28;20019;-76
2021/08/30 11:49:25;;;;;;;27.63;10.45;;;;;;;;;;5111137;28;20024;-76
2021/08/30 11:51:53;;;;;;;33.10;11.82;;;;;;;;;;5113782;28;20035;-74
2021/08/30 11:54:25;;;;;;;25.02;11.10;;;;;;;;;;5107175;28;20533;-75
2021/08/30 11:56:53;;;;;;;26.42;11.40;;;;;;;;;;5113398;28;20008;-77
2021/08/30 11:59:35;;;;;;;27.67;10.57;;;;;;;;;;5112974;28;20088;-76
2021/08/30 12:02:02;;;;;;;26.17;10.73;;;;;;;;;;5093004;28;20047;-75
2021/08/30 12:04:29;;;;;;;24.45;9.52;;;;;;;;;;5103585;28;20023;-75
2021/08/30 12:06:55;;;;;;;30.95;9.35;;;;;;;;;;5113296;28;20076;-78
2021/08/30 12:09:22;;;;;;;30.55;10.63;;;;;;;;;;5094726;28;20024;-77
2021/08/30 12:11:55;;;;;;;27.50;10.60;;;;;;;;;;5110942;28;20257;-73
2021/08/30 12:14:23;;;;;;;30.35;11.10;;;;;;;;;;5091236;28;20023;-73
2021/08/30 12:16:55;;;;;;;27.90;10.73;;;;;;;;;;5093838;28;20591;-74
2021/08/30 12:19:23;;;;;;;27.10;9.93;;;;;;;;;;5110986;28;20024;-73
2021/08/30 12:21:49;;;;;;;27.17;10.65;;;;;;;;;;5109906;28;20042;-74
2021/08/30 12:24:20;;;;;;;37.35;10.73;;;;;;;;;;5109720;28;20023;-75
2021/08/30 12:26:47;;;;;;;29.90;10.18;;;;;;;;;;5110435;28;20016;-75
2021/08/30 12:29:14;;;;;;;34.33;10.65;;;;;;;;;;5112489;28;20153;-73
2021/08/30 12:31:40;;;;;;;26.77;10.15;;;;;;;;;;5111686;28;20047;-73
2021/08/30 12:34:14;;;;;;;23.02;9.15;;;;;;;;;;5109360;28;20023;-73
2021/08/30 12:36:42;;;;;;;24.23;9.73;;;;;;;;;;5094264;28;20020;-74
2021/08/30 12:39:09;;;;;;;40.38;10.90;;;;;;;;;;5112613;27;20077;-74
2021/08/30 12:41:35;;;;;;;20.10;8.80;;;;;;;;;;5112598;28;20016;-74
2021/08/30 12:44:01;;;;;;;21.75;9.27;;;;;;;;;;5088241;28;20084;-71
2021/08/30 12:46:28;;;;;;;31.35;10.20;;;;;;;;;;5111187;28;20024;-73
2021/08/30 12:48:54;;;;;;;32.75;9.93;;;;;;;;;;5092203;28;20043;-72
2021/08/30 12:51:21;;;;;;;23.38;10.15;;;;;;;;;;5095067;28;20039;-72
2021/08/30 12:53:47;;;;;;;23.50;8.23;;;;;;;;;;5088094;28;20032;-72
2021/08/30 12:56:15;;;;;;;24.42;9.52;;;;;;;;;;5110635;28;20277;-73
2021/08/30 12:58:41;;;;;;;27.02;10.63;;;;;;;;;;5108542;28;20222;-73
2021/08/30 13:01:07;;;;;;;27.05;9.15;;;;;;;;;;5109546;28;20012;-74
2021/08/30 13:03:33;;;;;;;30.20;9.82;;;;;;;;;;5107572;28;20076;-72
2021/08/30 13:05:59;;;;;;;39.20;9.82;;;;;;;;;;5109999;28;20490;-74
2021/08/30 13:08:25;;;;;;;24.75;9.63;;;;;;;;;;5093580;28;20409;-70
2021/08/30 13:10:51;;;;;;;28.02;8.57;;;;;;;;;;5112394;28;20039;-71
2021/08/30 13:13:18;;;;;;;27.70;8.35;;;;;;;;;;5072383;28;20064;-70
2021/08/30 13:15:49;;;;;;;22.83;7.70;;;;;;;;;;5096875;28;20044;-71
2021/08/30 13:18:15;;;;;;;26.83;7.93;;;;;;;;;;5096601;28;20047;-72
2021/08/30 13:20:42;;;;;;;35.80;9.10;;;;;;;;;;5112070;28;20996;-71
2021/08/30 13:23:09;;;;;;;23.52;6.97;;;;;;;;;;5108592;28;20147;-72
2021/08/30 13:25:35;;;;;;;26.45;8.65;;;;;;;;;;5107986;28;20054;-71
2021/08/30 13:28:01;;;;;;;24.77;6.57;;;;;;;;;;5110519;28;20115;-72
2021/08/30 13:30:28;;;;;;;31.40;7.78;;;;;;;;;;5101752;28;20600;-71
2021/08/30 13:32:54;;;;;;;30.65;8.55;;;;;;;;;;5090912;28;20111;-71
2021/08/30 13:35:21;;;;;;;32.92;8.27;;;;;;;;;;5111855;28;20427;-71
2021/08/30 13:37:49;;;;;;;25.27;7.93;;;;;;;;;;5112357;28;20027;-71
2021/08/30 13:40:16;;;;;;;36.88;8.55;;;;;;;;;;5111468;28;20096;-70
2021/08/30 13:42:42;;;;;;;21.33;7.25;;;;;;;;;;5108972;28;20699;-71
2021/08/30 13:45:09;;;;;;;32.40;7.32;;;;;;;;;;5097876;28;20020;-70
2021/08/30 13:47:35;;;;;;;20.17;6.13;;;;;;;;;;5107281;28;20038;-70
2021/08/30 13:50:01;;;;;;;23.58;6.95;;;;;;;;;;5094699;28;20054;-70
2021/08/30 13:52:30;;;;;;;26.05;7.10;;;;;;;;;;5076513;28;20071;-72
2021/08/30 13:54:57;;;;;;;27.52;7.03;;;;;;;;;;5090966;28;20031;-71
2021/08/30 13:57:23;;;;;;;31.20;8.65;;;;;;;;;;5092929;28;20024;-70
2021/08/30 13:59:49;;;;;;;28.70;7.53;;;;;;;;;;5110918;28;20058;-70
2021/08/30 14:02:15;;;;;;;23.80;7.32;;;;;;;;;;5107720;28;20028;-72
2021/08/30 14:04:41;;;;;;;28.02;6.70;;;;;;;;;;5099571;28;20118;-70
2021/08/30 14:07:09;;;;;;;23.50;6.93;;;;;;;;;;5082617;28;20367;-70
2021/08/30 14:09:36;;;;;;;29.23;7.05;;;;;;;;;;5111454;28;20035;-69
2021/08/30 14:12:02;;;;;;;22.95;6.82;;;;;;;;;;5105258;28;20030;-69
2021/08/30 14:14:29;;;;;;;28.63;7.47;;;;;;;;;;5106296;28;20119;-71
2021/08/30 14:16:55;;;;;;;35.70;8.05;;;;;;;;;;5092367;28;20024;-70
2021/08/30 14:19:21;;;;;;;26.17;6.65;;;;;;;;;;5110058;28;20028;-72
2021/08/30 14:21:48;;;;;;;32.65;7.05;;;;;;;;;;5111033;28;20007;-72
2021/08/30 14:24:15;;;;;;;25.80;6.05;;;;;;;;;;5106503;28;20032;-71
2021/08/30 14:26:41;;;;;;;17.73;4.97;;;;;;;;;;5093012;28;20062;-70
2021/08/30 14:29:07;;;;;;;23.85;6.35;;;;;;;;;;5092050;28;20466;-70